Hildegard — WDH3885 — position and weather

sailwx.info

Track history (hours):
 
Tides and Currents Weather Stations Pressure Air Temp Water Temp Dewpoint Dewpoint Depression Visibility Wind Speed Wind Dir Waves Ship Positions

Hildegard

Owner: Millon, Lee V, Winters, CA. More information available from US FCC via Universal Licensing System and Coast Guard Vessel Documentation Center.

Last reported at 2017-Nov-14 21:47 UTC. Time now 2017-Dec-13 05:07 UTC.
Position N 37°30' W 122°29'.
Warning: this ship's position is 28 days out of date.

Length 9 m.

Type: Pleasure craft. MMSI: 367611940.

Date/timePositionNaut miles runAvg speedWind from/ knotsBaromVisibWave heightAir tempDewpointWater temp
2017-Nov-14 21:47N 37°30' W 122°29'0 0.0
2017-Nov-14 21:29N 37°30' W 122°29'0 0.1
2017-Nov-14 21:00N 37°30' W 122°29'0 0.2
2017-Nov-14 20:30N 37°30' W 122°29'0 0.2
2017-Nov-14 20:00N 37°30' W 122°29'0 0.1
2017-Nov-14 19:28N 37°30' W 122°29'0 0.0
2017-Nov-14 18:58N 37°30' W 122°29'0 0.0
2017-Nov-14 18:28N 37°30' W 122°29'0 0.0
2017-Nov-14 17:58N 37°30' W 122°29'0 0.0
2017-Nov-14 17:28N 37°30' W 122°29'0 0.0
2017-Nov-14 16:58N 37°30' W 122°29'0 0.0
2017-Nov-14 16:29N 37°30' W 122°29'0 0.0
2017-Nov-14 15:59N 37°30' W 122°29'0 0.0
2017-Nov-14 15:29N 37°30' W 122°29'0 0.0
2017-Nov-14 14:59N 37°30' W 122°29'0 0.0
2017-Nov-14 14:29N 37°30' W 122°29'0 0.0
2017-Nov-14 13:59N 37°30' W 122°29'0 0.0
2017-Nov-14 13:29N 37°30' W 122°29'0 0.0
2017-Nov-14 12:59N 37°30' W 122°29'0 0.0
2017-Nov-14 12:29N 37°30' W 122°29'0 0.0
2017-Nov-14 11:58N 37°30' W 122°29'0 0.0
2017-Nov-14 11:28N 37°30' W 122°29'0 0.0
2017-Nov-14 10:58N 37°30' W 122°29'0 0.0
2017-Nov-14 10:28N 37°30' W 122°29'0 0.0
2017-Nov-14 09:58N 37°30' W 122°29'0 0.0
2017-Nov-14 09:28N 37°30' W 122°29'0 0.0
2017-Nov-14 09:00N 37°30' W 122°29'0 0.0
2017-Nov-14 08:28N 37°30' W 122°29'0 0.0
2017-Nov-14 07:58N 37°30' W 122°29'0 0.0
2017-Nov-14 07:28N 37°30' W 122°29'0 0.0
2017-Nov-14 06:58N 37°30' W 122°29'0 0.0
2017-Nov-14 06:28N 37°30' W 122°29'0 0.0
2017-Nov-14 05:58N 37°30' W 122°29'0 0.0
2017-Nov-14 05:28N 37°30' W 122°29'0 0.0
2017-Nov-14 04:58N 37°30' W 122°29'0 0.0
2017-Nov-14 04:28N 37°30' W 122°29'0 0.0
2017-Nov-14 03:58N 37°30' W 122°29'0 0.0
2017-Nov-14 03:28N 37°30' W 122°29'0 0.0
2017-Nov-14 02:58N 37°30' W 122°29'0 0.0
2017-Nov-14 02:28N 37°30' W 122°29'0 0.0
2017-Nov-14 01:58N 37°30' W 122°29'1 2.4
2017-Nov-14 01:30N 37°29' W 122°28'2 4.9
2017-Nov-14 01:00N 37°27' W 122°28'1 1.2
2017-Nov-14 00:30N 37°26' W 122°28'0 0.2
2017-Nov-13 23:59N 37°26' W 122°28'1 1.7
2017-Nov-13 23:30N 37°27' W 122°28'0 0.2
2017-Nov-13 22:59N 37°27' W 122°28'2 3.1
2017-Nov-13 22:30N 37°29' W 122°29'0 0.3
2017-Nov-13 22:00N 37°29' W 122°29'2 0.1
2017-Nov-13 01:58N 37°30' W 122°29'0 0.0
2017-Nov-13 01:28N 37°30' W 122°29'0 0.0
2017-Nov-13 00:58N 37°30' W 122°29'0 0.0
2017-Nov-13 00:28N 37°30' W 122°29'0 0.0
2017-Nov-12 23:58N 37°30' W 122°29'0 0.0
2017-Nov-12 23:28N 37°30' W 122°29'4 7.7
2017-Nov-12 23:00N 37°30' W 122°33'3 5.1
2017-Nov-12 22:21N 37°31' W 122°37'410.5
2017-Nov-12 22:00N 37°33' W 122°33'1 1.2
2017-Nov-12 21:30N 37°33' W 122°32'0 0.7
2017-Nov-12 21:00N 37°33' W 122°33'0 0.0
2017-Nov-12 20:29N 37°33' W 122°33'4 0.8
2017-Nov-12 15:16N 37°30' W 122°29'0 0.0
2017-Nov-12 14:58N 37°30' W 122°29'0 0.0
2017-Nov-12 14:28N 37°30' W 122°29'0 0.0
2017-Nov-12 13:58N 37°30' W 122°29'0 0.0
2017-Nov-12 13:28N 37°30' W 122°29'0 0.0
2017-Nov-12 12:58N 37°30' W 122°29'0 0.0
2017-Nov-12 12:28N 37°30' W 122°29'0 0.0
2017-Nov-12 11:58N 37°30' W 122°29'0 0.0
2017-Nov-12 11:28N 37°30' W 122°29'0 0.0
2017-Nov-12 10:58N 37°30' W 122°29'0 0.0
2017-Nov-12 10:28N 37°30' W 122°29'0 0.0
2017-Nov-12 09:58N 37°30' W 122°29'0 0.0
2017-Nov-12 09:28N 37°30' W 122°29'0 0.0
2017-Nov-12 08:58N 37°30' W 122°29'0 0.0
2017-Nov-12 08:28N 37°30' W 122°29'0 0.0
2017-Nov-12 07:58N 37°30' W 122°29'0 0.0
2017-Nov-12 07:28N 37°30' W 122°29'0 0.0
2017-Nov-12 06:58N 37°30' W 122°29'0 0.0
2017-Nov-12 06:28N 37°30' W 122°29'0 0.0
2017-Nov-12 05:58N 37°30' W 122°29'0 0.0
2017-Nov-12 05:28N 37°30' W 122°29'0 0.0
2017-Nov-12 04:58N 37°30' W 122°29'0 0.0
2017-Nov-12 04:28N 37°30' W 122°29'0 0.0
2017-Nov-12 03:58N 37°30' W 122°29'0 0.0
2017-Nov-12 03:28N 37°30' W 122°29'0 0.0
2017-Nov-12 02:58N 37°30' W 122°29'0 0.0
2017-Nov-12 02:28N 37°30' W 122°29'0 0.0
2017-Nov-11 22:07N 37°30' W 122°29'0 0.0
2017-Nov-11 21:46N 37°30' W 122°29'0 0.0
2017-Nov-11 21:25N 37°30' W 122°29'0 0.0
2017-Nov-11 20:58N 37°30' W 122°29'0 0.0
2017-Nov-11 20:30N 37°30' W 122°29'3 6.9
2017-Nov-11 20:00N 37°29' W 122°33'4 7.5
2017-Nov-11 19:30N 37°32' W 122°37'0 0.3
2017-Nov-11 18:59N 37°31' W 122°37'1 1.4
2017-Nov-11 18:20N 37°31' W 122°36'515.8
2017-Nov-11 18:00N 37°29' W 122°30'2 2.9
2017-Nov-11 17:28N 37°30' W 122°29'0 0.0
2017-Nov-11 16:58N 37°30' W 122°29'0 0.0
2017-Nov-11 16:22N 37°30' W 122°29'0 0.0
2017-Nov-11 15:58N 37°30' W 122°29'0 0.0
2017-Nov-11 15:28N 37°30' W 122°29'0 0.0
2017-Nov-11 14:58N 37°30' W 122°29'0 0.0
2017-Nov-11 14:28N 37°30' W 122°29'0 0.0
2017-Nov-11 13:58N 37°30' W 122°29'0 0.0
2017-Nov-11 13:28N 37°30' W 122°29'0 0.0
2017-Nov-11 12:58N 37°30' W 122°29'0 0.0
2017-Nov-11 12:28N 37°30' W 122°29'0 0.0
2017-Nov-11 11:58N 37°30' W 122°29'0 0.0
2017-Nov-11 11:28N 37°30' W 122°29'0 0.0
2017-Nov-11 10:58N 37°30' W 122°29'0 0.0
2017-Nov-11 10:28N 37°30' W 122°29'0 0.0
2017-Nov-11 09:58N 37°30' W 122°29'0 0.0
2017-Nov-11 09:28N 37°30' W 122°29'0 0.0
2017-Nov-11 08:58N 37°30' W 122°29'0 0.0
2017-Nov-11 08:28N 37°30' W 122°29'0 0.0
2017-Nov-11 07:58N 37°30' W 122°29'0 0.0
2017-Nov-11 07:28N 37°30' W 122°29'0 0.0
2017-Nov-11 06:58N 37°30' W 122°29'0 0.0
2017-Nov-11 06:28N 37°30' W 122°29'0 0.0
2017-Nov-11 05:58N 37°30' W 122°29'0 0.0
2017-Nov-11 05:28N 37°30' W 122°29'0 0.0
2017-Nov-11 04:58N 37°30' W 122°29'0 0.0
2017-Nov-11 04:28N 37°30' W 122°29'0 0.0
2017-Nov-11 03:59N 37°30' W 122°29'0 0.0
2017-Nov-10 23:44N 37°30' W 122°29'0 0.3
2017-Nov-10 23:29N 37°30' W 122°29'1 2.6
2017-Nov-10 23:00N 37°29' W 122°30'712.8
2017-Nov-10 22:29N 37°32' W 122°37'0 0.3
2017-Nov-10 21:58N 37°31' W 122°37'0 0.2
2017-Nov-10 21:30N 37°31' W 122°37'510.0
2017-Nov-10 21:00N 37°29' W 122°32'2 4.8
2017-Nov-10 20:30N 37°30' W 122°29'0 0.4
2017-Nov-10 20:00N 37°30' W 122°29'0 0.0
2017-Nov-10 19:30N 37°30' W 122°29'0 0.0
2017-Nov-10 19:00N 37°30' W 122°29'0 0.0
2017-Nov-10 18:31N 37°30' W 122°29'0 0.0
2017-Nov-10 18:00N 37°30' W 122°29'0 0.0
2017-Nov-10 17:31N 37°30' W 122°29'0 0.0
2017-Nov-10 17:01N 37°30' W 122°29'0 0.0
2017-Nov-10 16:30N 37°30' W 122°29'0 0.0
2017-Nov-10 16:01N 37°30' W 122°29'0 0.0
2017-Nov-10 15:31N 37°30' W 122°29'0 0.0
2017-Nov-10 14:58N 37°30' W 122°29'0 0.0
2017-Nov-10 14:31N 37°30' W 122°29'0 0.0
2017-Nov-10 13:58N 37°30' W 122°29'0 0.0
2017-Nov-10 13:22N 37°30' W 122°29'0 0.0
2017-Nov-10 13:01N 37°30' W 122°29'0 0.0
2017-Nov-10 12:28N 37°30' W 122°29'0 0.0
2017-Nov-10 11:58N 37°30' W 122°29'0 0.0
2017-Nov-10 11:28N 37°30' W 122°29'0 0.0
2017-Nov-10 10:58N 37°30' W 122°29'0 0.0
2017-Nov-10 10:25N 37°30' W 122°29'0 0.0
2017-Nov-10 09:58N 37°30' W 122°29'0 0.0
2017-Nov-10 09:28N 37°30' W 122°29'0 0.0
2017-Nov-10 08:58N 37°30' W 122°29'0 0.0
2017-Nov-10 08:28N 37°30' W 122°29'0 0.0
2017-Nov-10 07:58N 37°30' W 122°29'0 0.0
2017-Nov-10 07:28N 37°30' W 122°29'0 0.0
2017-Nov-10 06:58N 37°30' W 122°29'0 0.0
2017-Nov-10 06:28N 37°30' W 122°29'0 0.0
2017-Nov-10 05:58N 37°30' W 122°29'0 0.0
2017-Nov-10 05:28N 37°30' W 122°29'0 0.0
2017-Nov-10 04:58N 37°30' W 122°29'0 0.0
2017-Nov-10 04:28N 37°30' W 122°29'0 0.0
2017-Nov-10 03:58N 37°30' W 122°29'0 0.0
2017-Nov-10 03:28N 37°30' W 122°29'0 0.0
2017-Nov-10 02:58N 37°30' W 122°29'0 0.0
2017-Nov-10 02:28N 37°30' W 122°29'0 0.0
2017-Nov-10 01:58N 37°30' W 122°29'0 0.0
2017-Nov-10 01:28N 37°30' W 122°29'0 0.0
2017-Nov-10 00:58N 37°30' W 122°29'0 0.0
2017-Nov-10 00:28N 37°30' W 122°29'0 0.0
2017-Nov-09 23:58N 37°30' W 122°29'0 0.0
2017-Nov-09 23:28N 37°30' W 122°29'0 0.0
2017-Nov-09 22:58N 37°30' W 122°29'0 0.0
2017-Nov-09 22:28N 37°30' W 122°29'0 0.0
2017-Nov-09 21:58N 37°30' W 122°29'0 0.0
2017-Nov-09 21:28N 37°30' W 122°29'0 0.0
2017-Nov-09 20:58N 37°30' W 122°29'0 0.0
2017-Nov-09 20:28N 37°30' W 122°29'0 0.0
2017-Nov-09 19:58N 37°30' W 122°29'0 0.0
2017-Nov-09 19:28N 37°30' W 122°29'0 0.0
2017-Nov-09 18:58N 37°30' W 122°29'0 0.0
2017-Nov-09 18:28N 37°30' W 122°29'0 0.0
2017-Nov-09 17:58N 37°30' W 122°29'0 0.0
2017-Nov-09 17:28N 37°30' W 122°29'0 0.0
2017-Nov-09 16:58N 37°30' W 122°29'0 0.0
2017-Nov-09 16:25N 37°30' W 122°29'0 0.0
2017-Nov-09 15:58N 37°30' W 122°29'0 0.0
2017-Nov-09 15:28N 37°30' W 122°29'0 0.0
2017-Nov-09 14:58N 37°30' W 122°29'0 0.0
2017-Nov-09 14:28N 37°30' W 122°29'0 0.0
2017-Nov-09 13:58N 37°30' W 122°29'0 0.0
2017-Nov-09 13:28N 37°30' W 122°29'0 0.0
2017-Nov-09 12:58N 37°30' W 122°29'0 0.0
2017-Nov-09 12:28N 37°30' W 122°29'0 0.0
2017-Nov-09 11:58N 37°30' W 122°29'0 0.0
2017-Nov-09 11:28N 37°30' W 122°29'0 0.0
2017-Nov-09 10:58N 37°30' W 122°29'0 0.0
2017-Nov-09 10:28N 37°30' W 122°29'0 0.0
2017-Nov-09 09:58N 37°30' W 122°29'0 0.0
2017-Nov-09 09:28N 37°30' W 122°29'0 0.0
2017-Nov-09 08:58N 37°30' W 122°29'0 0.0
2017-Nov-09 08:28N 37°30' W 122°29'0 0.0
2017-Nov-09 07:58N 37°30' W 122°29'0 0.0
2017-Nov-09 07:28N 37°30' W 122°29'0 0.0
2017-Nov-09 06:58N 37°30' W 122°29'0 0.0
2017-Nov-09 06:28N 37°30' W 122°29'0 0.0
2017-Nov-09 05:58N 37°30' W 122°29'0 0.0
2017-Nov-09 05:28N 37°30' W 122°29'0 0.0
2017-Nov-09 04:58N 37°30' W 122°29'0 0.0
2017-Nov-09 04:28N 37°30' W 122°29'0 0.0
2017-Nov-09 03:58N 37°30' W 122°29'0 0.0
2017-Nov-09 03:28N 37°30' W 122°29'0 0.0
2017-Nov-09 02:58N 37°30' W 122°29'0 0.0
2017-Nov-09 02:28N 37°30' W 122°29'0 0.0
2017-Nov-09 01:58N 37°30' W 122°29'0 0.0
2017-Nov-09 01:28N 37°30' W 122°29'0 0.0
2017-Nov-09 00:58N 37°30' W 122°29'0 0.0
2017-Nov-09 00:28N 37°30' W 122°29'0 0.0
2017-Nov-08 23:58N 37°30' W 122°29'0 0.0
2017-Nov-08 23:28N 37°30' W 122°29'0 0.0
2017-Nov-08 22:58N 37°30' W 122°29'0 0.0
2017-Nov-08 22:28N 37°30' W 122°29'0 0.0
2017-Nov-08 21:58N 37°30' W 122°29'0 0.0
2017-Nov-08 21:28N 37°30' W 122°29'0 0.0
2017-Nov-08 20:58N 37°30' W 122°29'0 0.0
2017-Nov-08 20:25N 37°30' W 122°29'0 0.0
2017-Nov-08 19:58N 37°30' W 122°29'0 0.0
2017-Nov-08 19:28N 37°30' W 122°29'0 0.0
2017-Nov-08 18:58N 37°30' W 122°29'0 0.0
2017-Nov-08 18:30N 37°30' W 122°29'0 0.0
2017-Nov-08 18:00N 37°30' W 122°29'0 0.0
2017-Nov-08 17:30N 37°30' W 122°29'0 0.0
2017-Nov-08 17:00N 37°30' W 122°29'0 0.0
2017-Nov-08 16:30N 37°30' W 122°29'0 0.0
2017-Nov-08 16:00N 37°30' W 122°29'0 0.0
2017-Nov-08 15:30N 37°30' W 122°29'0 0.0
2017-Nov-08 15:00N 37°30' W 122°29'0 0.0
2017-Nov-08 14:30N 37°30' W 122°29'0 0.0
2017-Nov-08 14:00N 37°30' W 122°29'0 0.0
2017-Nov-08 13:30N 37°30' W 122°29'0 0.0
2017-Nov-08 13:00N 37°30' W 122°29'0 0.0
2017-Nov-08 12:28N 37°30' W 122°29'0 0.0
2017-Nov-08 11:58N 37°30' W 122°29'0 0.0
2017-Nov-08 11:28N 37°30' W 122°29'0 0.0
2017-Nov-08 10:58N 37°30' W 122°29'0 0.0
2017-Nov-08 10:28N 37°30' W 122°29'0 0.0
2017-Nov-08 09:58N 37°30' W 122°29'0 0.0
2017-Nov-08 09:28N 37°30' W 122°29'0 0.0
2017-Nov-08 08:58N 37°30' W 122°29'0 0.0
2017-Nov-08 08:28N 37°30' W 122°29'0 0.0
2017-Nov-08 07:58N 37°30' W 122°29'0 0.0
2017-Nov-08 07:28N 37°30' W 122°29'0 0.0
2017-Nov-08 06:58N 37°30' W 122°29'0 0.0
2017-Nov-08 06:28N 37°30' W 122°29'0 0.0
2017-Nov-08 05:58N 37°30' W 122°29'0 0.0
2017-Nov-08 05:28N 37°30' W 122°29'0 0.0
2017-Nov-08 04:58N 37°30' W 122°29'0 0.0
2017-Nov-08 04:28N 37°30' W 122°29'0 0.0
2017-Nov-08 03:58N 37°30' W 122°29'0 0.0
2017-Nov-08 03:28N 37°30' W 122°29'0 0.0
2017-Nov-08 02:58N 37°30' W 122°29'0 0.0
2017-Nov-08 02:25N 37°30' W 122°29'0 0.0
2017-Nov-08 01:58N 37°30' W 122°29'0 0.0
2017-Nov-08 01:28N 37°30' W 122°29'0 0.0
2017-Nov-08 00:58N 37°30' W 122°29'0 0.0
2017-Nov-08 00:28N 37°30' W 122°29'2 3.6
2017-Nov-08 00:00N 37°28' W 122°29'1 2.1
2017-Nov-07 23:30N 37°28' W 122°30'1 2.1
2017-Nov-07 23:00N 37°29' W 122°31'611.1
2017-Nov-07 22:29N 37°31' W 122°37'0 0.3
2017-Nov-07 22:00N 37°32' W 122°38'3 5.8
2017-Nov-07 21:30N 37°31' W 122°34'2 3.8
2017-Nov-07 20:59N 37°33' W 122°32'0 0.1
2017-Nov-07 20:28N 37°33' W 122°32'0 0.1
2017-Nov-07 19:59N 37°33' W 122°32'0 0.3
2017-Nov-07 19:29N 37°33' W 122°32'0 0.2
2017-Nov-07 19:00N 37°33' W 122°32'0 0.4
2017-Nov-07 18:29N 37°33' W 122°32'0 0.4
2017-Nov-07 18:00N 37°33' W 122°32'0 0.3
2017-Nov-07 17:30N 37°33' W 122°32'0 0.5
2017-Nov-07 16:59N 37°33' W 122°32'510.3
2017-Nov-07 16:30N 37°28' W 122°29'2 3.3
2017-Nov-07 16:00N 37°30' W 122°29'0 0.0
2017-Nov-07 15:24N 37°30' W 122°29'0 0.0
2017-Nov-07 15:00N 37°30' W 122°29'0 0.0
2017-Nov-07 14:30N 37°30' W 122°29'0 0.0
2017-Nov-07 14:00N 37°30' W 122°29'0 0.0
2017-Nov-07 13:30N 37°30' W 122°29'0 0.0
2017-Nov-07 13:00N 37°30' W 122°29'0 0.0
2017-Nov-07 12:30N 37°30' W 122°29'0 0.0
2017-Nov-07 12:00N 37°30' W 122°29'0 0.0
2017-Nov-07 11:24N 37°30' W 122°29'0 0.0
2017-Nov-07 11:00N 37°30' W 122°29'0 0.0
2017-Nov-07 10:30N 37°30' W 122°29'0 0.0
2017-Nov-07 10:00N 37°30' W 122°29'0 0.0
2017-Nov-07 09:30N 37°30' W 122°29'0 0.0
2017-Nov-07 09:00N 37°30' W 122°29'0 0.0
2017-Nov-07 08:30N 37°30' W 122°29'0 0.0
2017-Nov-07 08:00N 37°30' W 122°29'0 0.0
2017-Nov-07 07:30N 37°30' W 122°29'0 0.0
2017-Nov-07 07:00N 37°30' W 122°29'0 0.0
2017-Nov-07 06:30N 37°30' W 122°29'0 0.0
2017-Nov-07 06:00N 37°30' W 122°29'0 0.0
2017-Nov-07 05:30N 37°30' W 122°29'0 0.0
2017-Nov-07 05:00N 37°30' W 122°29'0 0.0
2017-Nov-07 04:30N 37°30' W 122°29'0 0.0
2017-Nov-07 04:00N 37°30' W 122°29'0 0.0
2017-Nov-07 03:30N 37°30' W 122°29'0 0.0
2017-Nov-07 03:00N 37°30' W 122°29'0 0.0
2017-Nov-07 02:30N 37°30' W 122°29'0 0.0
2017-Nov-07 02:00N 37°30' W 122°29'0 0.0
2017-Nov-07 01:30N 37°30' W 122°29'0 0.0
2017-Nov-07 01:00N 37°30' W 122°29'0 0.0
2017-Nov-07 00:30N 37°30' W 122°29'0 0.0
2017-Nov-07 00:00N 37°30' W 122°29'0 1.0
2017-Nov-06 23:30N 37°30' W 122°29'611.5
2017-Nov-06 23:00N 37°31' W 122°36'1 2.1
2017-Nov-06 22:25N 37°31' W 122°37'0 0.3
2017-Nov-06 21:57N 37°31' W 122°37'0 0.2
2017-Nov-06 21:30N 37°31' W 122°37'510.5
2017-Nov-06 21:00N 37°29' W 122°31'2 4.7
2017-Nov-06 20:30N 37°30' W 122°29'0 0.0
2017-Nov-06 02:30N 37°30' W 122°29'0 0.0
2017-Nov-06 01:59N 37°30' W 122°29'0 0.0
2017-Nov-06 01:29N 37°30' W 122°29'0 0.0
2017-Nov-06 00:59N 37°30' W 122°29'0 0.0
2017-Nov-06 00:29N 37°30' W 122°29'0 0.0
2017-Nov-05 23:59N 37°30' W 122°29'0 0.0
2017-Nov-05 23:29N 37°30' W 122°29'0 0.0
2017-Nov-05 22:59N 37°30' W 122°29'1 1.9
2017-Nov-05 22:30N 37°29' W 122°29'1 1.5
2017-Nov-05 22:00N 37°28' W 122°29'0 0.3
2017-Nov-05 21:30N 37°29' W 122°29'0 0.0
2017-Nov-05 21:00N 37°29' W 122°29'0 0.0
2017-Nov-05 20:30N 37°29' W 122°29'1 1.8
2017-Nov-05 20:00N 37°29' W 122°30'0 0.1
2017-Nov-05 19:30N 37°29' W 122°30'1 2.4
2017-Nov-05 19:00N 37°30' W 122°29'0 0.0
2017-Nov-05 18:30N 37°30' W 122°29'4 7.5
2017-Nov-05 18:00N 37°30' W 122°33'4 6.8
2017-Nov-05 17:29N 37°32' W 122°37'1 2.5
2017-Nov-05 16:59N 37°31' W 122°36'510.1
2017-Nov-05 16:30N 37°29' W 122°31'2 3.2
2017-Nov-05 16:00N 37°30' W 122°29'0 0.0
2017-Nov-05 15:30N 37°30' W 122°29'0 0.0
2017-Nov-05 15:00N 37°30' W 122°29'0 0.0
2017-Nov-05 14:30N 37°30' W 122°29'0 0.0
2017-Nov-05 14:00N 37°30' W 122°29'0 0.0
2017-Nov-05 13:30N 37°30' W 122°29'0 0.0
2017-Nov-05 13:00N 37°30' W 122°29'0 0.0
2017-Nov-05 12:30N 37°30' W 122°29'0 0.0
2017-Nov-05 12:00N 37°30' W 122°29'0 0.0
2017-Nov-05 11:30N 37°30' W 122°29'0 0.0
2017-Nov-05 11:00N 37°30' W 122°29'0 0.0
2017-Nov-05 10:30N 37°30' W 122°29'0 0.0
2017-Nov-05 09:57N 37°30' W 122°29'0 0.0
2017-Nov-05 09:30N 37°30' W 122°29'0 0.0
2017-Nov-05 09:00N 37°30' W 122°29'0 0.0
2017-Nov-05 08:30N 37°30' W 122°29'0 0.0
2017-Nov-05 08:00N 37°30' W 122°29'0 0.0
2017-Nov-05 07:30N 37°30' W 122°29'0 0.0
2017-Nov-05 07:00N 37°30' W 122°29'0 0.0
2017-Nov-05 06:30N 37°30' W 122°29'0 0.0
2017-Nov-05 06:00N 37°30' W 122°29'0 0.0
2017-Nov-05 05:30N 37°30' W 122°29'0 0.0
2017-Nov-05 05:01N 37°30' W 122°29'0 0.0
2017-Nov-05 04:28N 37°30' W 122°29'0 0.0
2017-Nov-05 04:01N 37°30' W 122°29'0 0.0
2017-Nov-05 03:28N 37°30' W 122°29'0 0.0
2017-Nov-05 02:58N 37°30' W 122°29'0 0.0
2017-Nov-05 02:28N 37°30' W 122°29'0 0.0
2017-Nov-05 01:58N 37°30' W 122°29'0 0.0
2017-Nov-05 01:28N 37°30' W 122°29'1 2.2
2017-Nov-05 01:00N 37°29' W 122°29'0 0.5
2017-Nov-05 00:30N 37°29' W 122°29'510.8
2017-Nov-05 00:00N 37°30' W 122°36'2 3.7
2017-Nov-04 23:29N 37°31' W 122°37'0 0.2
2017-Nov-04 22:58N 37°31' W 122°37'0 0.3
2017-Nov-04 22:27N 37°31' W 122°37'2 3.7
2017-Nov-04 21:59N 37°31' W 122°35'  
Track history (hours):
 
Tides and Currents Weather Stations Pressure Air Temp Water Temp Dewpoint Dewpoint Depression Visibility Wind Speed Wind Dir Waves Ship Positions

Hildegard

Owner: Millon, Lee V, Winters, CA. More information available from US FCC via Universal Licensing System and Coast Guard Vessel Documentation Center.

Last reported at 2017-Nov-14 21:47 UTC. Time now 2017-Dec-13 05:07 UTC.
Position N 37°30' W 122°29'.
Warning: this ship's position is 28 days out of date.

Length 9 m.

Type: Pleasure craft. MMSI: 367611940.

Date/timePositionNaut miles runAvg speedWind from/ knotsBaromVisibWave heightAir tempDewpointWater temp
2017-Nov-14 21:47N 37°30' W 122°29'0 0.0
2017-Nov-14 21:29N 37°30' W 122°29'0 0.1
2017-Nov-14 21:00N 37°30' W 122°29'0 0.2
2017-Nov-14 20:30N 37°30' W 122°29'0 0.2
2017-Nov-14 20:00N 37°30' W 122°29'0 0.1
2017-Nov-14 19:28N 37°30' W 122°29'0 0.0
2017-Nov-14 18:58N 37°30' W 122°29'0 0.0
2017-Nov-14 18:28N 37°30' W 122°29'0 0.0
2017-Nov-14 17:58N 37°30' W 122°29'0 0.0
2017-Nov-14 17:28N 37°30' W 122°29'0 0.0
2017-Nov-14 16:58N 37°30' W 122°29'0 0.0
2017-Nov-14 16:29N 37°30' W 122°29'0 0.0
2017-Nov-14 15:59N 37°30' W 122°29'0 0.0
2017-Nov-14 15:29N 37°30' W 122°29'0 0.0
2017-Nov-14 14:59N 37°30' W 122°29'0 0.0
2017-Nov-14 14:29N 37°30' W 122°29'0 0.0
2017-Nov-14 13:59N 37°30' W 122°29'0 0.0
2017-Nov-14 13:29N 37°30' W 122°29'0 0.0
2017-Nov-14 12:59N 37°30' W 122°29'0 0.0
2017-Nov-14 12:29N 37°30' W 122°29'0 0.0
2017-Nov-14 11:58N 37°30' W 122°29'0 0.0
2017-Nov-14 11:28N 37°30' W 122°29'0 0.0
2017-Nov-14 10:58N 37°30' W 122°29'0 0.0
2017-Nov-14 10:28N 37°30' W 122°29'0 0.0
2017-Nov-14 09:58N 37°30' W 122°29'0 0.0
2017-Nov-14 09:28N 37°30' W 122°29'0 0.0
2017-Nov-14 09:00N 37°30' W 122°29'0 0.0
2017-Nov-14 08:28N 37°30' W 122°29'0 0.0
2017-Nov-14 07:58N 37°30' W 122°29'0 0.0
2017-Nov-14 07:28N 37°30' W 122°29'0 0.0
2017-Nov-14 06:58N 37°30' W 122°29'0 0.0
2017-Nov-14 06:28N 37°30' W 122°29'0 0.0
2017-Nov-14 05:58N 37°30' W 122°29'0 0.0
2017-Nov-14 05:28N 37°30' W 122°29'0 0.0
2017-Nov-14 04:58N 37°30' W 122°29'0 0.0
2017-Nov-14 04:28N 37°30' W 122°29'0 0.0
2017-Nov-14 03:58N 37°30' W 122°29'0 0.0
2017-Nov-14 03:28N 37°30' W 122°29'0 0.0
2017-Nov-14 02:58N 37°30' W 122°29'0 0.0
2017-Nov-14 02:28N 37°30' W 122°29'0 0.0
2017-Nov-14 01:58N 37°30' W 122°29'1 2.4
2017-Nov-14 01:30N 37°29' W 122°28'2 4.9
2017-Nov-14 01:00N 37°27' W 122°28'1 1.2
2017-Nov-14 00:30N 37°26' W 122°28'0 0.2
2017-Nov-13 23:59N 37°26' W 122°28'1 1.7
2017-Nov-13 23:30N 37°27' W 122°28'0 0.2
2017-Nov-13 22:59N 37°27' W 122°28'2 3.1
2017-Nov-13 22:30N 37°29' W 122°29'0 0.3
2017-Nov-13 22:00N 37°29' W 122°29'2 0.1
2017-Nov-13 01:58N 37°30' W 122°29'0 0.0
2017-Nov-13 01:28N 37°30' W 122°29'0 0.0
2017-Nov-13 00:58N 37°30' W 122°29'0 0.0
2017-Nov-13 00:28N 37°30' W 122°29'0 0.0
2017-Nov-12 23:58N 37°30' W 122°29'0 0.0
2017-Nov-12 23:28N 37°30' W 122°29'4 7.7
2017-Nov-12 23:00N 37°30' W 122°33'3 5.1
2017-Nov-12 22:21N 37°31' W 122°37'410.5
2017-Nov-12 22:00N 37°33' W 122°33'1 1.2
2017-Nov-12 21:30N 37°33' W 122°32'0 0.7
2017-Nov-12 21:00N 37°33' W 122°33'0 0.0
2017-Nov-12 20:29N 37°33' W 122°33'4 0.8
2017-Nov-12 15:16N 37°30' W 122°29'0 0.0
2017-Nov-12 14:58N 37°30' W 122°29'0 0.0
2017-Nov-12 14:28N 37°30' W 122°29'0 0.0
2017-Nov-12 13:58N 37°30' W 122°29'0 0.0
2017-Nov-12 13:28N 37°30' W 122°29'0 0.0
2017-Nov-12 12:58N 37°30' W 122°29'0 0.0
2017-Nov-12 12:28N 37°30' W 122°29'0 0.0
2017-Nov-12 11:58N 37°30' W 122°29'0 0.0
2017-Nov-12 11:28N 37°30' W 122°29'0 0.0
2017-Nov-12 10:58N 37°30' W 122°29'0 0.0
2017-Nov-12 10:28N 37°30' W 122°29'0 0.0
2017-Nov-12 09:58N 37°30' W 122°29'0 0.0
2017-Nov-12 09:28N 37°30' W 122°29'0 0.0
2017-Nov-12 08:58N 37°30' W 122°29'0 0.0
2017-Nov-12 08:28N 37°30' W 122°29'0 0.0
2017-Nov-12 07:58N 37°30' W 122°29'0 0.0
2017-Nov-12 07:28N 37°30' W 122°29'0 0.0
2017-Nov-12 06:58N 37°30' W 122°29'0 0.0
2017-Nov-12 06:28N 37°30' W 122°29'0 0.0
2017-Nov-12 05:58N 37°30' W 122°29'0 0.0
2017-Nov-12 05:28N 37°30' W 122°29'0 0.0
2017-Nov-12 04:58N 37°30' W 122°29'0 0.0
2017-Nov-12 04:28N 37°30' W 122°29'0 0.0
2017-Nov-12 03:58N 37°30' W 122°29'0 0.0
2017-Nov-12 03:28N 37°30' W 122°29'0 0.0
2017-Nov-12 02:58N 37°30' W 122°29'0 0.0
2017-Nov-12 02:28N 37°30' W 122°29'0 0.0
2017-Nov-11 22:07N 37°30' W 122°29'0 0.0
2017-Nov-11 21:46N 37°30' W 122°29'0 0.0
2017-Nov-11 21:25N 37°30' W 122°29'0 0.0
2017-Nov-11 20:58N 37°30' W 122°29'0 0.0
2017-Nov-11 20:30N 37°30' W 122°29'3 6.9
2017-Nov-11 20:00N 37°29' W 122°33'4 7.5
2017-Nov-11 19:30N 37°32' W 122°37'0 0.3
2017-Nov-11 18:59N 37°31' W 122°37'1 1.4
2017-Nov-11 18:20N 37°31' W 122°36'515.8
2017-Nov-11 18:00N 37°29' W 122°30'2 2.9
2017-Nov-11 17:28N 37°30' W 122°29'0 0.0
2017-Nov-11 16:58N 37°30' W 122°29'0 0.0
2017-Nov-11 16:22N 37°30' W 122°29'0 0.0
2017-Nov-11 15:58N 37°30' W 122°29'0 0.0
2017-Nov-11 15:28N 37°30' W 122°29'0 0.0
2017-Nov-11 14:58N 37°30' W 122°29'0 0.0
2017-Nov-11 14:28N 37°30' W 122°29'0 0.0
2017-Nov-11 13:58N 37°30' W 122°29'0 0.0
2017-Nov-11 13:28N 37°30' W 122°29'0 0.0
2017-Nov-11 12:58N 37°30' W 122°29'0 0.0
2017-Nov-11 12:28N 37°30' W 122°29'0 0.0
2017-Nov-11 11:58N 37°30' W 122°29'0 0.0
2017-Nov-11 11:28N 37°30' W 122°29'0 0.0
2017-Nov-11 10:58N 37°30' W 122°29'0 0.0
2017-Nov-11 10:28N 37°30' W 122°29'0 0.0
2017-Nov-11 09:58N 37°30' W 122°29'0 0.0
2017-Nov-11 09:28N 37°30' W 122°29'0 0.0
2017-Nov-11 08:58N 37°30' W 122°29'0 0.0
2017-Nov-11 08:28N 37°30' W 122°29'0 0.0
2017-Nov-11 07:58N 37°30' W 122°29'0 0.0
2017-Nov-11 07:28N 37°30' W 122°29'0 0.0
2017-Nov-11 06:58N 37°30' W 122°29'0 0.0
2017-Nov-11 06:28N 37°30' W 122°29'0 0.0
2017-Nov-11 05:58N 37°30' W 122°29'0 0.0
2017-Nov-11 05:28N 37°30' W 122°29'0 0.0
2017-Nov-11 04:58N 37°30' W 122°29'0 0.0
2017-Nov-11 04:28N 37°30' W 122°29'0 0.0
2017-Nov-11 03:59N 37°30' W 122°29'0 0.0
2017-Nov-10 23:44N 37°30' W 122°29'0 0.3
2017-Nov-10 23:29N 37°30' W 122°29'1 2.6
2017-Nov-10 23:00N 37°29' W 122°30'712.8
2017-Nov-10 22:29N 37°32' W 122°37'0 0.3
2017-Nov-10 21:58N 37°31' W 122°37'0 0.2
2017-Nov-10 21:30N 37°31' W 122°37'510.0
2017-Nov-10 21:00N 37°29' W 122°32'2 4.8
2017-Nov-10 20:30N 37°30' W 122°29'0 0.4
2017-Nov-10 20:00N 37°30' W 122°29'0 0.0
2017-Nov-10 19:30N 37°30' W 122°29'0 0.0
2017-Nov-10 19:00N 37°30' W 122°29'0 0.0
2017-Nov-10 18:31N 37°30' W 122°29'0 0.0
2017-Nov-10 18:00N 37°30' W 122°29'0 0.0
2017-Nov-10 17:31N 37°30' W 122°29'0 0.0
2017-Nov-10 17:01N 37°30' W 122°29'0 0.0
2017-Nov-10 16:30N 37°30' W 122°29'0 0.0
2017-Nov-10 16:01N 37°30' W 122°29'0 0.0
2017-Nov-10 15:31N 37°30' W 122°29'0 0.0
2017-Nov-10 14:58N 37°30' W 122°29'0 0.0
2017-Nov-10 14:31N 37°30' W 122°29'0 0.0
2017-Nov-10 13:58N 37°30' W 122°29'0 0.0
2017-Nov-10 13:22N 37°30' W 122°29'0 0.0
2017-Nov-10 13:01N 37°30' W 122°29'0 0.0
2017-Nov-10 12:28N 37°30' W 122°29'0 0.0
2017-Nov-10 11:58N 37°30' W 122°29'0 0.0
2017-Nov-10 11:28N 37°30' W 122°29'0 0.0
2017-Nov-10 10:58N 37°30' W 122°29'0 0.0
2017-Nov-10 10:25N 37°30' W 122°29'0 0.0
2017-Nov-10 09:58N 37°30' W 122°29'0 0.0
2017-Nov-10 09:28N 37°30' W 122°29'0 0.0
2017-Nov-10 08:58N 37°30' W 122°29'0 0.0
2017-Nov-10 08:28N 37°30' W 122°29'0 0.0
2017-Nov-10 07:58N 37°30' W 122°29'0 0.0
2017-Nov-10 07:28N 37°30' W 122°29'0 0.0
2017-Nov-10 06:58N 37°30' W 122°29'0 0.0
2017-Nov-10 06:28N 37°30' W 122°29'0 0.0
2017-Nov-10 05:58N 37°30' W 122°29'0 0.0
2017-Nov-10 05:28N 37°30' W 122°29'0 0.0
2017-Nov-10 04:58N 37°30' W 122°29'0 0.0
2017-Nov-10 04:28N 37°30' W 122°29'0 0.0
2017-Nov-10 03:58N 37°30' W 122°29'0 0.0
2017-Nov-10 03:28N 37°30' W 122°29'0 0.0
2017-Nov-10 02:58N 37°30' W 122°29'0 0.0
2017-Nov-10 02:28N 37°30' W 122°29'0 0.0
2017-Nov-10 01:58N 37°30' W 122°29'0 0.0
2017-Nov-10 01:28N 37°30' W 122°29'0 0.0
2017-Nov-10 00:58N 37°30' W 122°29'0 0.0
2017-Nov-10 00:28N 37°30' W 122°29'0 0.0
2017-Nov-09 23:58N 37°30' W 122°29'0 0.0
2017-Nov-09 23:28N 37°30' W 122°29'0 0.0
2017-Nov-09 22:58N 37°30' W 122°29'0 0.0
2017-Nov-09 22:28N 37°30' W 122°29'0 0.0
2017-Nov-09 21:58N 37°30' W 122°29'0 0.0
2017-Nov-09 21:28N 37°30' W 122°29'0 0.0
2017-Nov-09 20:58N 37°30' W 122°29'0 0.0
2017-Nov-09 20:28N 37°30' W 122°29'0 0.0
2017-Nov-09 19:58N 37°30' W 122°29'0 0.0
2017-Nov-09 19:28N 37°30' W 122°29'0 0.0
2017-Nov-09 18:58N 37°30' W 122°29'0 0.0
2017-Nov-09 18:28N 37°30' W 122°29'0 0.0
2017-Nov-09 17:58N 37°30' W 122°29'0 0.0
2017-Nov-09 17:28N 37°30' W 122°29'0 0.0
2017-Nov-09 16:58N 37°30' W 122°29'0 0.0
2017-Nov-09 16:25N 37°30' W 122°29'0 0.0
2017-Nov-09 15:58N 37°30' W 122°29'0 0.0
2017-Nov-09 15:28N 37°30' W 122°29'0 0.0
2017-Nov-09 14:58N 37°30' W 122°29'0 0.0
2017-Nov-09 14:28N 37°30' W 122°29'0 0.0
2017-Nov-09 13:58N 37°30' W 122°29'0 0.0
2017-Nov-09 13:28N 37°30' W 122°29'0 0.0
2017-Nov-09 12:58N 37°30' W 122°29'0 0.0
2017-Nov-09 12:28N 37°30' W 122°29'0 0.0
2017-Nov-09 11:58N 37°30' W 122°29'0 0.0
2017-Nov-09 11:28N 37°30' W 122°29'0 0.0
2017-Nov-09 10:58N 37°30' W 122°29'0 0.0
2017-Nov-09 10:28N 37°30' W 122°29'0 0.0
2017-Nov-09 09:58N 37°30' W 122°29'0 0.0
2017-Nov-09 09:28N 37°30' W 122°29'0 0.0
2017-Nov-09 08:58N 37°30' W 122°29'0 0.0
2017-Nov-09 08:28N 37°30' W 122°29'0 0.0
2017-Nov-09 07:58N 37°30' W 122°29'0 0.0
2017-Nov-09 07:28N 37°30' W 122°29'0 0.0
2017-Nov-09 06:58N 37°30' W 122°29'0 0.0
2017-Nov-09 06:28N 37°30' W 122°29'0 0.0
2017-Nov-09 05:58N 37°30' W 122°29'0 0.0
2017-Nov-09 05:28N 37°30' W 122°29'0 0.0
2017-Nov-09 04:58N 37°30' W 122°29'0 0.0
2017-Nov-09 04:28N 37°30' W 122°29'0 0.0
2017-Nov-09 03:58N 37°30' W 122°29'0 0.0
2017-Nov-09 03:28N 37°30' W 122°29'0 0.0
2017-Nov-09 02:58N 37°30' W 122°29'0 0.0
2017-Nov-09 02:28N 37°30' W 122°29'0 0.0
2017-Nov-09 01:58N 37°30' W 122°29'0 0.0
2017-Nov-09 01:28N 37°30' W 122°29'0 0.0
2017-Nov-09 00:58N 37°30' W 122°29'0 0.0
2017-Nov-09 00:28N 37°30' W 122°29'0 0.0
2017-Nov-08 23:58N 37°30' W 122°29'0 0.0
2017-Nov-08 23:28N 37°30' W 122°29'0 0.0
2017-Nov-08 22:58N 37°30' W 122°29'0 0.0
2017-Nov-08 22:28N 37°30' W 122°29'0 0.0
2017-Nov-08 21:58N 37°30' W 122°29'0 0.0
2017-Nov-08 21:28N 37°30' W 122°29'0 0.0
2017-Nov-08 20:58N 37°30' W 122°29'0 0.0
2017-Nov-08 20:25N 37°30' W 122°29'0 0.0
2017-Nov-08 19:58N 37°30' W 122°29'0 0.0
2017-Nov-08 19:28N 37°30' W 122°29'0 0.0
2017-Nov-08 18:58N 37°30' W 122°29'0 0.0
2017-Nov-08 18:30N 37°30' W 122°29'0 0.0
2017-Nov-08 18:00N 37°30' W 122°29'0 0.0
2017-Nov-08 17:30N 37°30' W 122°29'0 0.0
2017-Nov-08 17:00N 37°30' W 122°29'0 0.0
2017-Nov-08 16:30N 37°30' W 122°29'0 0.0
2017-Nov-08 16:00N 37°30' W 122°29'0 0.0
2017-Nov-08 15:30N 37°30' W 122°29'0 0.0
2017-Nov-08 15:00N 37°30' W 122°29'0 0.0
2017-Nov-08 14:30N 37°30' W 122°29'0 0.0
2017-Nov-08 14:00N 37°30' W 122°29'0 0.0
2017-Nov-08 13:30N 37°30' W 122°29'0 0.0
2017-Nov-08 13:00N 37°30' W 122°29'0 0.0
2017-Nov-08 12:28N 37°30' W 122°29'0 0.0
2017-Nov-08 11:58N 37°30' W 122°29'0 0.0
2017-Nov-08 11:28N 37°30' W 122°29'0 0.0
2017-Nov-08 10:58N 37°30' W 122°29'0 0.0
2017-Nov-08 10:28N 37°30' W 122°29'0 0.0
2017-Nov-08 09:58N 37°30' W 122°29'0 0.0
2017-Nov-08 09:28N 37°30' W 122°29'0 0.0
2017-Nov-08 08:58N 37°30' W 122°29'0 0.0
2017-Nov-08 08:28N 37°30' W 122°29'0 0.0
2017-Nov-08 07:58N 37°30' W 122°29'0 0.0
2017-Nov-08 07:28N 37°30' W 122°29'0 0.0
2017-Nov-08 06:58N 37°30' W 122°29'0 0.0
2017-Nov-08 06:28N 37°30' W 122°29'0 0.0
2017-Nov-08 05:58N 37°30' W 122°29'0 0.0
2017-Nov-08 05:28N 37°30' W 122°29'0 0.0
2017-Nov-08 04:58N 37°30' W 122°29'0 0.0
2017-Nov-08 04:28N 37°30' W 122°29'0 0.0
2017-Nov-08 03:58N 37°30' W 122°29'0 0.0
2017-Nov-08 03:28N 37°30' W 122°29'0 0.0
2017-Nov-08 02:58N 37°30' W 122°29'0 0.0
2017-Nov-08 02:25N 37°30' W 122°29'0 0.0
2017-Nov-08 01:58N 37°30' W 122°29'0 0.0
2017-Nov-08 01:28N 37°30' W 122°29'0 0.0
2017-Nov-08 00:58N 37°30' W 122°29'0 0.0
2017-Nov-08 00:28N 37°30' W 122°29'2 3.6
2017-Nov-08 00:00N 37°28' W 122°29'1 2.1
2017-Nov-07 23:30N 37°28' W 122°30'1 2.1
2017-Nov-07 23:00N 37°29' W 122°31'611.1
2017-Nov-07 22:29N 37°31' W 122°37'0 0.3
2017-Nov-07 22:00N 37°32' W 122°38'3 5.8
2017-Nov-07 21:30N 37°31' W 122°34'2 3.8
2017-Nov-07 20:59N 37°33' W 122°32'0 0.1
2017-Nov-07 20:28N 37°33' W 122°32'0 0.1
2017-Nov-07 19:59N 37°33' W 122°32'0 0.3
2017-Nov-07 19:29N 37°33' W 122°32'0 0.2
2017-Nov-07 19:00N 37°33' W 122°32'0 0.4
2017-Nov-07 18:29N 37°33' W 122°32'0 0.4
2017-Nov-07 18:00N 37°33' W 122°32'0 0.3
2017-Nov-07 17:30N 37°33' W 122°32'0 0.5
2017-Nov-07 16:59N 37°33' W 122°32'510.3
2017-Nov-07 16:30N 37°28' W 122°29'2 3.3
2017-Nov-07 16:00N 37°30' W 122°29'0 0.0
2017-Nov-07 15:24N 37°30' W 122°29'0 0.0
2017-Nov-07 15:00N 37°30' W 122°29'0 0.0
2017-Nov-07 14:30N 37°30' W 122°29'0 0.0
2017-Nov-07 14:00N 37°30' W 122°29'0 0.0
2017-Nov-07 13:30N 37°30' W 122°29'0 0.0
2017-Nov-07 13:00N 37°30' W 122°29'0 0.0
2017-Nov-07 12:30N 37°30' W 122°29'0 0.0
2017-Nov-07 12:00N 37°30' W 122°29'0 0.0
2017-Nov-07 11:24N 37°30' W 122°29'0 0.0
2017-Nov-07 11:00N 37°30' W 122°29'0 0.0
2017-Nov-07 10:30N 37°30' W 122°29'0 0.0
2017-Nov-07 10:00N 37°30' W 122°29'0 0.0
2017-Nov-07 09:30N 37°30' W 122°29'0 0.0
2017-Nov-07 09:00N 37°30' W 122°29'0 0.0
2017-Nov-07 08:30N 37°30' W 122°29'0 0.0
2017-Nov-07 08:00N 37°30' W 122°29'0 0.0
2017-Nov-07 07:30N 37°30' W 122°29'0 0.0
2017-Nov-07 07:00N 37°30' W 122°29'0 0.0
2017-Nov-07 06:30N 37°30' W 122°29'0 0.0
2017-Nov-07 06:00N 37°30' W 122°29'0 0.0
2017-Nov-07 05:30N 37°30' W 122°29'0 0.0
2017-Nov-07 05:00N 37°30' W 122°29'0 0.0
2017-Nov-07 04:30N 37°30' W 122°29'0 0.0
2017-Nov-07 04:00N 37°30' W 122°29'0 0.0
2017-Nov-07 03:30N 37°30' W 122°29'0 0.0
2017-Nov-07 03:00N 37°30' W 122°29'0 0.0
2017-Nov-07 02:30N 37°30' W 122°29'0 0.0
2017-Nov-07 02:00N 37°30' W 122°29'0 0.0
2017-Nov-07 01:30N 37°30' W 122°29'0 0.0
2017-Nov-07 01:00N 37°30' W 122°29'0 0.0
2017-Nov-07 00:30N 37°30' W 122°29'0 0.0
2017-Nov-07 00:00N 37°30' W 122°29'0 1.0
2017-Nov-06 23:30N 37°30' W 122°29'611.5
2017-Nov-06 23:00N 37°31' W 122°36'1 2.1
2017-Nov-06 22:25N 37°31' W 122°37'0 0.3
2017-Nov-06 21:57N 37°31' W 122°37'0 0.2
2017-Nov-06 21:30N 37°31' W 122°37'510.5
2017-Nov-06 21:00N 37°29' W 122°31'2 4.7
2017-Nov-06 20:30N 37°30' W 122°29'0 0.0
2017-Nov-06 02:30N 37°30' W 122°29'0 0.0
2017-Nov-06 01:59N 37°30' W 122°29'0 0.0
2017-Nov-06 01:29N 37°30' W 122°29'0 0.0
2017-Nov-06 00:59N 37°30' W 122°29'0 0.0
2017-Nov-06 00:29N 37°30' W 122°29'0 0.0
2017-Nov-05 23:59N 37°30' W 122°29'0 0.0
2017-Nov-05 23:29N 37°30' W 122°29'0 0.0
2017-Nov-05 22:59N 37°30' W 122°29'1 1.9
2017-Nov-05 22:30N 37°29' W 122°29'1 1.5
2017-Nov-05 22:00N 37°28' W 122°29'0 0.3
2017-Nov-05 21:30N 37°29' W 122°29'0 0.0
2017-Nov-05 21:00N 37°29' W 122°29'0 0.0
2017-Nov-05 20:30N 37°29' W 122°29'1 1.8
2017-Nov-05 20:00N 37°29' W 122°30'0 0.1
2017-Nov-05 19:30N 37°29' W 122°30'1 2.4
2017-Nov-05 19:00N 37°30' W 122°29'0 0.0
2017-Nov-05 18:30N 37°30' W 122°29'4 7.5
2017-Nov-05 18:00N 37°30' W 122°33'4 6.8
2017-Nov-05 17:29N 37°32' W 122°37'1 2.5
2017-Nov-05 16:59N 37°31' W 122°36'510.1
2017-Nov-05 16:30N 37°29' W 122°31'2 3.2
2017-Nov-05 16:00N 37°30' W 122°29'0 0.0
2017-Nov-05 15:30N 37°30' W 122°29'0 0.0
2017-Nov-05 15:00N 37°30' W 122°29'0 0.0
2017-Nov-05 14:30N 37°30' W 122°29'0 0.0
2017-Nov-05 14:00N 37°30' W 122°29'0 0.0
2017-Nov-05 13:30N 37°30' W 122°29'0 0.0
2017-Nov-05 13:00N 37°30' W 122°29'0 0.0
2017-Nov-05 12:30N 37°30' W 122°29'0 0.0
2017-Nov-05 12:00N 37°30' W 122°29'0 0.0
2017-Nov-05 11:30N 37°30' W 122°29'0 0.0
2017-Nov-05 11:00N 37°30' W 122°29'0 0.0
2017-Nov-05 10:30N 37°30' W 122°29'0 0.0
2017-Nov-05 09:57N 37°30' W 122°29'0 0.0
2017-Nov-05 09:30N 37°30' W 122°29'0 0.0
2017-Nov-05 09:00N 37°30' W 122°29'0 0.0
2017-Nov-05 08:30N 37°30' W 122°29'0 0.0
2017-Nov-05 08:00N 37°30' W 122°29'0 0.0
2017-Nov-05 07:30N 37°30' W 122°29'0 0.0
2017-Nov-05 07:00N 37°30' W 122°29'0 0.0
2017-Nov-05 06:30N 37°30' W 122°29'0 0.0
2017-Nov-05 06:00N 37°30' W 122°29'0 0.0
2017-Nov-05 05:30N 37°30' W 122°29'0 0.0
2017-Nov-05 05:01N 37°30' W 122°29'0 0.0
2017-Nov-05 04:28N 37°30' W 122°29'0 0.0
2017-Nov-05 04:01N 37°30' W 122°29'0 0.0
2017-Nov-05 03:28N 37°30' W 122°29'0 0.0
2017-Nov-05 02:58N 37°30' W 122°29'0 0.0
2017-Nov-05 02:28N 37°30' W 122°29'0 0.0
2017-Nov-05 01:58N 37°30' W 122°29'0 0.0
2017-Nov-05 01:28N 37°30' W 122°29'1 2.2
2017-Nov-05 01:00N 37°29' W 122°29'0 0.5
2017-Nov-05 00:30N 37°29' W 122°29'510.8
2017-Nov-05 00:00N 37°30' W 122°36'2 3.7
2017-Nov-04 23:29N 37°31' W 122°37'0 0.2
2017-Nov-04 22:58N 37°31' W 122°37'0 0.3
2017-Nov-04 22:27N 37°31' W 122°37'2 3.7
2017-Nov-04 21:59N 37°31' W 122°35'  

Dump ship's entire track history